createdAt,value
2019-05-22T00:02:17.348Z,33.78
2019-05-22T00:04:53.404Z,34.63
2019-05-22T00:07:23.608Z,34.00
2019-05-22T00:09:53.162Z,39.90
2019-05-22T00:12:24.492Z,34.15
2019-05-22T00:14:56.042Z,34.20
2019-05-22T00:17:28.906Z,33.95
2019-05-22T00:19:58.611Z,37.33
2019-05-22T00:22:31.777Z,35.92
2019-05-22T00:25:01.791Z,36.65
2019-05-22T00:27:32.698Z,34.88
2019-05-22T00:30:02.495Z,34.65
2019-05-22T00:32:33.718Z,33.98
2019-05-22T00:35:05.325Z,37.70
2019-05-22T00:37:35.209Z,35.70
2019-05-22T00:40:08.017Z,35.03
2019-05-22T00:42:40.033Z,41.45
2019-05-22T00:45:14.191Z,35.50
2019-05-22T00:47:44.286Z,38.60
2019-05-22T00:50:22.285Z,39.90
2019-05-22T00:53:02.073Z,36.03
2019-05-22T00:55:50.125Z,36.75
2019-05-22T00:58:21.338Z,37.35
2019-05-22T01:00:52.745Z,38.90
2019-05-22T01:03:30.134Z,47.33
2019-05-22T01:05:59.692Z,40.10
2019-05-22T01:08:29.392Z,36.68
2019-05-22T01:11:00.570Z,36.85
2019-05-22T01:13:34.679Z,37.10
2019-05-22T01:16:05.662Z,38.55
2019-05-22T01:18:36.026Z,42.10
2019-05-22T01:21:07.388Z,36.13
2019-05-22T01:23:36.798Z,40.20
2019-05-22T01:26:06.565Z,36.83
2019-05-22T01:28:37.371Z,42.75
2019-05-22T01:31:11.714Z,39.13
2019-05-22T01:33:48.828Z,40.10
2019-05-22T01:36:23.909Z,34.08
2019-05-22T01:38:55.847Z,38.73
2019-05-22T01:41:28.097Z,35.92
2019-05-22T01:43:57.640Z,34.67
2019-05-22T01:46:28.877Z,35.75
2019-05-22T01:49:00.193Z,36.38
2019-05-22T01:51:31.947Z,35.95
2019-05-22T01:54:02.736Z,39.58
2019-05-22T01:56:35.025Z,38.85
2019-05-22T01:59:05.182Z,33.65
2019-05-22T02:01:35.917Z,38.88
2019-05-22T02:04:06.993Z,36.40
2019-05-22T02:06:37.262Z,36.23
2019-05-22T02:09:31.131Z,36.03
2019-05-22T02:12:05.346Z,36.55
2019-05-22T02:14:35.207Z,37.08
2019-05-22T02:17:06.023Z,33.05
2019-05-22T02:19:37.291Z,37.03
2019-05-22T02:22:06.982Z,31.37
2019-05-22T02:24:36.445Z,34.25
2019-05-22T02:27:06.341Z,34.85
2019-05-22T02:29:36.064Z,33.23
2019-05-22T02:32:07.159Z,34.92
2019-05-22T02:34:37.316Z,33.73
2019-05-22T02:37:07.833Z,30.90
2019-05-22T02:39:38.016Z,32.80
2019-05-22T02:42:15.097Z,33.35
2019-05-22T02:44:45.737Z,33.15
2019-05-22T02:47:20.527Z,33.73
2019-05-22T02:49:48.905Z,32.33
2019-05-22T02:52:20.142Z,36.53
2019-05-22T02:54:51.264Z,34.83
2019-05-22T02:57:22.097Z,35.13
2019-05-22T02:59:52.349Z,34.27
2019-05-22T03:02:23.463Z,33.60
2019-05-22T03:04:59.800Z,35.92
2019-05-22T03:07:31.311Z,39.80
2019-05-22T03:10:02.568Z,34.88
2019-05-22T03:12:33.265Z,41.18
2019-05-22T03:15:04.222Z,39.40
2019-05-22T03:17:33.798Z,42.48
2019-05-22T03:20:06.682Z,39.38
2019-05-22T03:22:52.310Z,43.63
2019-05-22T03:25:23.480Z,41.98
2019-05-22T03:27:53.965Z,44.85
2019-05-22T03:30:27.125Z,43.87
2019-05-22T03:32:57.535Z,45.73
2019-05-22T03:35:28.279Z,42.45
2019-05-22T03:37:59.333Z,46.25
2019-05-22T03:40:29.997Z,48.75
2019-05-22T03:43:02.117Z,49.95
2019-05-22T03:45:33.320Z,51.73
2019-05-22T03:48:03.041Z,50.98
2019-05-22T03:50:32.785Z,53.28
2019-05-22T03:53:08.734Z,55.17
2019-05-22T03:55:38.386Z,51.50
2019-05-22T03:58:08.621Z,54.58
2019-05-22T04:00:43.299Z,57.38
2019-05-22T04:03:10.240Z,56.68
2019-05-22T04:05:39.818Z,57.90
2019-05-22T04:08:09.294Z,64.27
2019-05-22T04:10:58.045Z,49.70
2019-05-22T04:13:28.388Z,55.52
2019-05-22T04:15:58.551Z,54.88
2019-05-22T04:18:36.085Z,58.17
2019-05-22T04:21:05.982Z,58.60
2019-05-22T04:23:36.113Z,61.40
2019-05-22T04:26:06.661Z,56.83
2019-05-22T04:28:36.227Z,59.30
2019-05-22T04:31:07.746Z,61.15
2019-05-22T04:33:37.383Z,54.03
2019-05-22T04:36:10.352Z,58.48
2019-05-22T04:38:39.687Z,55.60
2019-05-22T04:41:09.211Z,55.45
2019-05-22T04:43:38.754Z,53.73
2019-05-22T04:46:08.500Z,49.27
2019-05-22T04:48:38.076Z,46.10
2019-05-22T04:51:22.842Z,48.65
2019-05-22T04:53:52.639Z,43.10
2019-05-22T04:56:22.890Z,40.43
2019-05-22T04:58:52.975Z,41.08
2019-05-22T05:01:23.284Z,37.95
2019-05-22T05:04:01.672Z,35.38
2019-05-22T05:06:31.456Z,32.23
2019-05-22T05:09:01.132Z,38.98
2019-05-22T05:11:31.692Z,29.30
2019-05-22T05:14:01.284Z,28.62
2019-05-22T05:16:31.078Z,29.45
2019-05-22T05:19:01.005Z,28.40
2019-05-22T05:21:30.576Z,27.25
2019-05-22T05:24:00.037Z,25.23
2019-05-22T05:26:30.301Z,22.65
2019-05-22T05:29:00.327Z,20.82
2019-05-22T05:31:29.885Z,17.60
2019-05-22T05:34:11.152Z,16.37
2019-05-22T05:36:41.394Z,15.28
2019-05-22T05:39:30.666Z,17.25
2019-05-22T05:42:00.350Z,12.20
2019-05-22T05:44:30.434Z,13.62
2019-05-22T05:46:59.914Z,12.58
2019-05-22T05:49:29.482Z,15.38
2019-05-22T05:51:59.311Z,10.08
2019-05-22T05:54:30.463Z,10.05
2019-05-22T05:57:34.194Z,11.57
2019-05-22T06:00:04.616Z,9.28
2019-05-22T06:02:34.328Z,10.13
2019-05-22T06:05:04.317Z,10.65
2019-05-22T06:07:35.041Z,9.10
2019-05-22T06:10:25.398Z,8.55
2019-05-22T06:12:55.052Z,8.70
2019-05-22T06:15:47.157Z,8.43
2019-05-22T06:18:31.925Z,7.33
2019-05-22T06:21:04.144Z,9.25
2019-05-22T06:23:39.661Z,8.18
2019-05-22T06:26:10.195Z,9.85
2019-05-22T06:28:39.985Z,8.05
2019-05-22T06:31:13.312Z,9.05
2019-05-22T06:33:42.855Z,9.75
2019-05-22T06:36:14.403Z,8.95
2019-05-22T06:38:56.498Z,9.58
2019-05-22T06:41:27.269Z,10.13
2019-05-22T06:44:19.581Z,11.50
2019-05-22T06:46:49.030Z,11.70
2019-05-22T06:49:38.491Z,13.50
2019-05-22T06:52:09.293Z,13.83
2019-05-22T06:54:39.007Z,12.93
2019-05-22T06:57:11.440Z,14.05
2019-05-22T06:59:41.231Z,13.25
2019-05-22T07:02:12.651Z,13.25
2019-05-22T07:04:42.845Z,9.83
2019-05-22T07:07:13.839Z,10.90
2019-05-22T07:09:45.051Z,9.70
2019-05-22T07:12:15.781Z,9.68
2019-05-22T07:14:54.813Z,8.10
2019-05-22T07:17:24.619Z,8.70
2019-05-22T07:19:54.019Z,6.17
2019-05-22T07:22:23.880Z,7.65
2019-05-22T07:24:53.445Z,7.62
2019-05-22T07:27:25.055Z,5.80
2019-05-22T07:29:54.663Z,5.78
2019-05-22T07:32:24.767Z,7.47
2019-05-22T07:34:55.929Z,8.58
2019-05-22T07:37:25.885Z,6.92
2019-05-22T07:39:55.243Z,7.08
2019-05-22T07:42:24.746Z,6.60
2019-05-22T07:44:54.101Z,6.58
2019-05-22T07:47:24.012Z,5.87
2019-05-22T07:49:53.633Z,6.15
2019-05-22T07:52:24.108Z,5.08
2019-05-22T07:54:54.234Z,4.92
2019-05-22T07:57:24.076Z,6.17
2019-05-22T07:59:53.422Z,6.22
2019-05-22T08:02:24.867Z,4.35
2019-05-22T08:04:54.289Z,4.83
2019-05-22T08:07:25.608Z,6.37
2019-05-22T08:09:55.212Z,5.15
2019-05-22T08:12:25.415Z,4.90
2019-05-22T08:14:55.032Z,5.17
2019-05-22T08:17:26.468Z,5.92
2019-05-22T08:19:55.906Z,5.90
2019-05-22T08:22:25.265Z,6.95
2019-05-22T08:24:54.808Z,6.15
2019-05-22T08:27:24.159Z,5.97
2019-05-22T08:29:56.853Z,7.00
2019-05-22T08:32:24.973Z,6.83
2019-05-22T08:34:54.411Z,7.30
2019-05-22T08:37:29.271Z,6.58
2019-05-22T08:39:59.290Z,5.70
2019-05-22T08:42:29.958Z,6.58
2019-05-22T08:44:59.364Z,6.55
2019-05-22T08:47:29.749Z,6.73
2019-05-22T08:49:59.168Z,7.67
2019-05-22T08:52:29.413Z,7.47
2019-05-22T08:54:58.924Z,6.10
2019-05-22T08:57:28.518Z,7.00
2019-05-22T08:59:58.074Z,6.22
2019-05-22T09:02:27.496Z,8.15
2019-05-22T09:04:57.193Z,7.20
2019-05-22T09:07:26.774Z,6.35
2019-05-22T09:09:56.279Z,6.55
2019-05-22T09:12:28.693Z,6.85
2019-05-22T09:14:58.214Z,6.95
2019-05-22T09:17:27.923Z,7.87
2019-05-22T09:19:57.692Z,7.37
2019-05-22T09:22:40.116Z,8.93
2019-05-22T09:24:59.961Z,9.38
2019-05-22T09:27:29.483Z,9.50
2019-05-22T09:29:58.835Z,9.13
2019-05-22T09:32:28.205Z,9.70
2019-05-22T09:34:57.505Z,10.23
2019-05-22T09:37:26.981Z,10.78
2019-05-22T09:39:56.381Z,8.88
2019-05-22T09:42:27.928Z,8.80
2019-05-22T09:45:06.243Z,10.48
2019-05-22T09:47:35.731Z,11.45
2019-05-22T09:50:10.451Z,10.48
2019-05-22T09:52:56.327Z,12.35
2019-05-22T09:55:13.208Z,12.37
2019-05-22T09:57:43.122Z,12.53
2019-05-22T10:00:14.341Z,18.80
2019-05-22T10:02:44.187Z,16.03
2019-05-22T10:05:14.012Z,16.52
2019-05-22T10:07:58.056Z,15.93
2019-05-22T10:10:15.008Z,16.55
2019-05-22T10:12:45.909Z,18.80
2019-05-22T10:15:16.331Z,20.95
2019-05-22T10:17:48.557Z,18.17
2019-05-22T10:20:18.997Z,16.48
2019-05-22T10:22:50.821Z,18.27
2019-05-22T10:25:20.398Z,18.02
2019-05-22T10:27:50.202Z,18.95
2019-05-22T10:30:22.821Z,21.33
2019-05-22T10:32:53.066Z,21.68
2019-05-22T10:35:29.772Z,22.30
2019-05-22T10:37:59.553Z,28.83
2019-05-22T10:40:29.201Z,27.50
2019-05-22T10:42:58.869Z,26.87
2019-05-22T10:45:28.451Z,27.93
2019-05-22T10:47:58.139Z,28.40
2019-05-22T10:50:27.915Z,31.87
2019-05-22T10:52:57.562Z,28.38
2019-05-22T10:55:27.508Z,29.80
2019-05-22T10:57:57.815Z,31.45
2019-05-22T11:00:27.919Z,31.73
2019-05-22T11:02:57.462Z,35.10
2019-05-22T11:05:28.648Z,31.50
2019-05-22T11:07:58.190Z,35.30
2019-05-22T11:10:28.236Z,34.60
2019-05-22T11:12:57.880Z,30.08
2019-05-22T11:15:27.700Z,31.45
2019-05-22T11:17:57.479Z,29.65
2019-05-22T11:20:27.232Z,29.37
2019-05-22T11:22:56.975Z,30.37
2019-05-22T11:25:26.808Z,31.20
2019-05-22T11:27:56.655Z,31.20
2019-05-22T11:30:26.176Z,28.35
2019-05-22T11:32:55.757Z,29.60
2019-05-22T11:35:31.961Z,24.80
2019-05-22T11:38:01.629Z,26.50
2019-05-22T11:40:31.417Z,29.07
2019-05-22T11:43:01.587Z,31.12
2019-05-22T11:45:31.637Z,30.37
2019-05-22T11:48:01.276Z,32.63
2019-05-22T11:50:31.798Z,32.85
2019-05-22T11:53:04.397Z,35.40
2019-05-22T11:55:45.369Z,33.63
2019-05-22T11:58:05.802Z,34.50
2019-05-22T12:00:35.416Z,36.28
2019-05-22T12:03:05.287Z,36.40
2019-05-22T12:05:35.074Z,35.38
2019-05-22T12:08:05.737Z,35.78
2019-05-22T12:10:35.612Z,34.45
2019-05-22T12:13:06.430Z,35.85
2019-05-22T12:15:36.141Z,34.75
2019-05-22T12:18:07.078Z,36.23
2019-05-22T12:20:36.490Z,37.38
2019-05-22T12:23:05.869Z,36.58
2019-05-22T12:25:35.513Z,39.90
2019-05-22T12:28:04.948Z,36.80
2019-05-22T12:30:34.402Z,39.40
2019-05-22T12:33:12.691Z,39.78
2019-05-22T12:35:36.919Z,36.90
2019-05-22T12:38:06.694Z,40.85
2019-05-22T12:40:36.507Z,43.02
2019-05-22T12:43:06.548Z,36.77
2019-05-22T12:45:36.241Z,37.23
2019-05-22T12:48:06.082Z,34.55
2019-05-22T12:50:36.918Z,38.53
2019-05-22T12:53:09.189Z,38.75
2019-05-22T12:55:39.125Z,40.30
2019-05-22T12:58:08.596Z,34.90
2019-05-22T13:00:38.636Z,32.83
2019-05-22T13:03:08.851Z,9.88
2019-05-22T13:05:39.394Z,5.87
2019-05-22T13:08:09.501Z,3.10
2019-05-22T13:10:39.121Z,4.28
2019-05-22T13:13:09.194Z,4.05
2019-05-22T13:15:38.896Z,4.08
2019-05-22T13:18:10.398Z,4.22
2019-05-22T13:20:43.564Z,4.75
2019-05-22T13:23:13.133Z,3.55
2019-05-22T13:25:43.045Z,4.05
2019-05-22T13:28:24.660Z,2.90
2019-05-22T13:30:55.285Z,2.92
2019-05-22T13:33:26.733Z,3.70
2019-05-22T13:35:56.706Z,4.33
2019-05-22T13:38:26.879Z,3.85
2019-05-22T13:40:57.044Z,3.55
2019-05-22T13:43:27.611Z,5.15
2019-05-22T13:45:57.796Z,4.30
2019-05-22T13:48:27.781Z,9.68
2019-05-22T13:50:58.260Z,4.25
2019-05-22T13:53:28.182Z,4.30
2019-05-22T13:55:58.237Z,4.95
2019-05-22T13:58:28.690Z,5.62
2019-05-22T14:00:58.388Z,6.90
2019-05-22T14:03:28.298Z,6.53
2019-05-22T14:05:58.350Z,6.75
2019-05-22T14:08:28.238Z,5.87
2019-05-22T14:10:58.399Z,10.82
2019-05-22T14:13:29.796Z,4.85
2019-05-22T14:15:59.425Z,5.65
2019-05-22T14:18:28.761Z,5.72
2019-05-22T14:21:00.071Z,4.78
2019-05-22T14:23:30.874Z,4.87
2019-05-22T14:26:00.482Z,5.10
2019-05-22T14:28:31.459Z,5.42
2019-05-22T14:31:01.245Z,5.70
2019-05-22T14:33:30.880Z,7.72
2019-05-22T14:36:01.305Z,10.80
2019-05-22T14:38:30.824Z,9.25
2019-05-22T14:41:00.712Z,9.43
2019-05-22T14:43:31.089Z,11.83
2019-05-22T14:46:00.635Z,9.35
2019-05-22T14:48:30.394Z,9.48
2019-05-22T14:51:00.036Z,10.53
2019-05-22T14:53:29.950Z,12.07
2019-05-22T14:56:00.528Z,10.15
2019-05-22T14:58:30.724Z,6.62
2019-05-22T15:01:00.416Z,10.50
2019-05-22T15:03:30.918Z,10.90
2019-05-22T15:06:00.834Z,7.10
2019-05-22T15:08:30.531Z,8.03
2019-05-22T15:11:00.420Z,8.78
2019-05-22T15:13:30.157Z,9.38
2019-05-22T15:15:59.704Z,9.50
2019-05-22T15:18:29.802Z,7.90
2019-05-22T15:21:02.603Z,6.12
2019-05-22T15:23:33.549Z,9.30
2019-05-22T15:26:03.089Z,9.08
2019-05-22T15:28:32.725Z,9.35
2019-05-22T15:31:02.568Z,8.50
2019-05-22T15:33:33.097Z,10.65
2019-05-22T15:36:06.798Z,8.88
2019-05-22T15:38:40.405Z,8.35
2019-05-22T15:41:11.625Z,8.03
2019-05-22T15:43:41.135Z,8.85
2019-05-22T15:46:11.994Z,7.42
2019-05-22T15:48:41.637Z,7.12
2019-05-22T15:51:11.229Z,9.23
2019-05-22T15:53:41.606Z,6.75
2019-05-22T15:56:11.300Z,7.20
2019-05-22T15:58:41.490Z,6.62
2019-05-22T16:01:13.094Z,8.00
2019-05-22T16:03:42.845Z,8.33
2019-05-22T16:06:12.967Z,8.25
2019-05-22T16:08:42.486Z,8.68
2019-05-22T16:11:14.908Z,6.42
2019-05-22T16:13:44.928Z,6.75
2019-05-22T16:16:20.243Z,7.05
2019-05-22T16:18:50.419Z,6.75
2019-05-22T16:21:20.929Z,8.83
2019-05-22T16:23:50.654Z,9.93
2019-05-22T16:26:21.015Z,9.45
2019-05-22T16:28:50.794Z,7.75
2019-05-22T16:31:21.591Z,7.25
2019-05-22T16:33:51.925Z,11.15
2019-05-22T16:36:23.145Z,9.43
2019-05-22T16:38:53.765Z,8.20
2019-05-22T16:41:23.334Z,7.20
2019-05-22T16:43:52.830Z,8.35
2019-05-22T16:46:22.477Z,6.72
2019-05-22T16:48:52.269Z,10.25
2019-05-22T16:51:22.492Z,8.58
2019-05-22T16:53:53.341Z,7.87
2019-05-22T16:56:23.565Z,10.98
2019-05-22T16:58:52.998Z,8.85
2019-05-22T17:01:22.952Z,9.00
2019-05-22T17:03:53.929Z,9.13
2019-05-22T17:06:24.467Z,10.60
2019-05-22T17:08:55.335Z,8.68
2019-05-22T17:11:25.217Z,10.05
2019-05-22T17:13:56.116Z,8.48
2019-05-22T17:16:28.255Z,10.18
2019-05-22T17:18:57.871Z,10.85
2019-05-22T17:21:27.712Z,8.78
2019-05-22T17:23:58.895Z,7.85
2019-05-22T17:26:30.066Z,6.72
2019-05-22T17:28:59.741Z,7.50
2019-05-22T17:31:29.691Z,8.55
2019-05-22T17:33:59.682Z,7.28
2019-05-22T17:36:31.025Z,38.25
2019-05-22T17:39:01.380Z,27.20
2019-05-22T17:41:32.589Z,8.40
2019-05-22T17:44:02.358Z,6.58
2019-05-22T17:46:33.761Z,5.17
2019-05-22T17:49:03.637Z,5.72
2019-05-22T17:51:33.503Z,5.92
2019-05-22T17:54:03.578Z,9.20
2019-05-22T17:56:33.045Z,7.92
2019-05-22T17:59:04.593Z,9.60
2019-05-22T18:01:34.313Z,10.13
2019-05-22T18:04:04.603Z,7.42
2019-05-22T18:06:34.510Z,13.25
2019-05-22T18:09:05.078Z,8.35
2019-05-22T18:11:34.774Z,8.83
2019-05-22T18:14:05.913Z,8.30
2019-05-22T18:16:36.275Z,8.45
2019-05-22T18:19:07.671Z,9.18
2019-05-22T18:21:38.702Z,8.53
2019-05-22T18:24:09.043Z,9.23
2019-05-22T18:26:41.819Z,7.60
2019-05-22T18:29:11.415Z,6.95
2019-05-22T18:31:41.081Z,7.10
2019-05-22T18:34:11.483Z,7.90
2019-05-22T18:36:42.823Z,10.08
2019-05-22T18:39:14.037Z,7.58
2019-05-22T18:41:43.754Z,8.00
2019-05-22T18:44:13.347Z,10.63
2019-05-22T18:46:43.305Z,13.40
2019-05-22T18:49:14.206Z,9.70
2019-05-22T18:51:44.280Z,9.05
2019-05-22T18:54:14.365Z,8.23
2019-05-22T18:56:44.091Z,9.15
2019-05-22T18:59:13.845Z,10.85
2019-05-22T19:01:47.294Z,12.45
2019-05-22T19:04:16.856Z,15.48
2019-05-22T19:06:46.492Z,12.50
2019-05-22T19:09:16.629Z,13.70
2019-05-22T19:11:47.508Z,10.48
2019-05-22T19:14:17.433Z,10.43
2019-05-22T19:16:47.280Z,9.65
2019-05-22T19:19:17.071Z,8.73
2019-05-22T19:21:47.177Z,10.75
2019-05-22T19:24:16.779Z,9.88
2019-05-22T19:26:46.843Z,8.73
2019-05-22T19:29:16.411Z,9.30
2019-05-22T19:31:45.987Z,7.60
2019-05-22T19:34:15.724Z,10.55
2019-05-22T19:36:45.917Z,9.10
2019-05-22T19:39:15.803Z,11.00
2019-05-22T19:41:59.871Z,10.88
2019-05-22T19:44:17.944Z,16.85
2019-05-22T19:46:48.285Z,10.45
2019-05-22T19:49:17.913Z,11.40
2019-05-22T19:51:48.765Z,12.03
2019-05-22T19:54:18.842Z,12.07
2019-05-22T19:56:49.500Z,7.37
2019-05-22T19:59:19.353Z,6.85
2019-05-22T20:01:48.926Z,7.75
2019-05-22T20:04:18.737Z,9.20
2019-05-22T20:06:48.462Z,9.18
2019-05-22T20:09:20.137Z,7.83
2019-05-22T20:11:49.796Z,9.08
2019-05-22T20:14:19.680Z,7.10
2019-05-22T20:16:49.329Z,7.55
2019-05-22T20:19:19.570Z,7.72
2019-05-22T20:21:53.311Z,8.03
2019-05-22T20:24:24.394Z,6.30
2019-05-22T20:26:53.978Z,8.78
2019-05-22T20:29:23.955Z,6.70
2019-05-22T20:31:53.946Z,7.80
2019-05-22T20:34:23.680Z,7.22
2019-05-22T20:36:53.880Z,6.83
2019-05-22T20:39:24.373Z,11.20
2019-05-22T20:41:54.361Z,7.90
2019-05-22T20:44:23.883Z,7.08
2019-05-22T20:46:53.526Z,6.80
2019-05-22T20:49:23.411Z,7.05
2019-05-22T20:51:54.514Z,6.62
2019-05-22T20:54:24.781Z,6.87
2019-05-22T20:56:55.049Z,7.10
2019-05-22T20:59:24.714Z,6.67
2019-05-22T21:01:54.655Z,7.10
2019-05-22T21:04:25.703Z,6.05
2019-05-22T21:07:00.058Z,6.92
2019-05-22T21:09:30.065Z,7.80
2019-05-22T21:12:00.185Z,7.60
2019-05-22T21:14:29.945Z,8.83
2019-05-22T21:16:59.484Z,7.08
2019-05-22T21:19:30.109Z,6.17
2019-05-22T21:21:59.843Z,7.87
2019-05-22T21:24:29.891Z,10.30
2019-05-22T21:26:59.650Z,5.15
2019-05-22T21:29:29.256Z,7.40
2019-05-22T21:31:59.847Z,5.67
2019-05-22T21:34:29.959Z,6.28
2019-05-22T21:36:59.591Z,6.22
2019-05-22T21:39:29.817Z,5.30
2019-05-22T21:41:59.301Z,4.53
2019-05-22T21:44:29.008Z,5.92
2019-05-22T21:47:00.445Z,6.97
2019-05-22T21:49:30.055Z,6.12
2019-05-22T21:52:00.029Z,6.05
2019-05-22T21:54:36.660Z,8.35
2019-05-22T21:57:06.311Z,8.20
2019-05-22T21:59:36.829Z,8.90
2019-05-22T22:02:13.912Z,6.75
2019-05-22T22:04:43.448Z,7.35
2019-05-22T22:07:14.656Z,6.33
2019-05-22T22:09:44.955Z,6.90
2019-05-22T22:12:15.007Z,5.97
2019-05-22T22:14:44.533Z,8.33
2019-05-22T22:17:15.066Z,6.75
2019-05-22T22:19:46.323Z,7.08
2019-05-22T22:22:21.380Z,8.83
2019-05-22T22:24:51.195Z,7.22
2019-05-22T22:27:21.459Z,8.20
2019-05-22T22:29:51.013Z,8.98
2019-05-22T22:32:22.583Z,7.85
2019-05-22T22:34:52.381Z,8.00
2019-05-22T22:37:23.348Z,9.33
2019-05-22T22:39:55.308Z,7.37
2019-05-22T22:42:25.327Z,18.00
2019-05-22T22:44:54.907Z,8.55
2019-05-22T22:47:26.389Z,12.75
2019-05-22T22:49:57.500Z,8.38
2019-05-22T22:52:28.051Z,8.95
2019-05-22T22:54:58.779Z,7.53
2019-05-22T22:57:28.340Z,8.88
2019-05-22T22:59:57.871Z,7.50
2019-05-22T23:02:30.374Z,8.58
2019-05-22T23:04:59.953Z,8.60
2019-05-22T23:07:30.135Z,10.03
2019-05-22T23:10:00.532Z,8.48
2019-05-22T23:12:30.699Z,7.58
2019-05-22T23:15:00.670Z,7.47
2019-05-22T23:17:30.174Z,7.65
2019-05-22T23:19:58.896Z,7.37
2019-05-22T23:22:27.755Z,7.55
2019-05-22T23:24:58.086Z,7.12
2019-05-22T23:27:29.326Z,8.23
2019-05-22T23:29:59.998Z,7.67
2019-05-22T23:32:29.762Z,7.97
2019-05-22T23:34:59.976Z,7.65
2019-05-22T23:37:29.519Z,10.32
2019-05-22T23:39:59.422Z,8.93
2019-05-22T23:42:31.490Z,7.33
2019-05-22T23:45:01.314Z,11.55
2019-05-22T23:47:32.126Z,8.55
2019-05-22T23:50:01.894Z,12.33
2019-05-22T23:52:31.569Z,8.83
2019-05-22T23:55:01.350Z,8.35
2019-05-22T23:57:30.975Z,8.35
